createdAt,value
2017-10-18T00:01:55.607Z,11.60
2017-10-18T00:04:23.183Z,11.60
2017-10-18T00:06:50.797Z,11.50
2017-10-18T00:09:18.422Z,11.50
2017-10-18T00:11:45.994Z,11.50
2017-10-18T00:14:13.603Z,11.50
2017-10-18T00:16:41.223Z,11.50
2017-10-18T00:19:08.879Z,11.50
2017-10-18T00:21:36.494Z,11.50
2017-10-18T00:24:04.074Z,11.50
2017-10-18T00:26:31.693Z,11.50
2017-10-18T00:28:59.398Z,11.50
2017-10-18T00:31:27.010Z,11.50
2017-10-18T00:33:54.599Z,11.60
2017-10-18T00:36:22.186Z,11.60
2017-10-18T00:38:49.801Z,11.50
2017-10-18T00:41:17.418Z,11.50
2017-10-18T00:43:45.041Z,11.50
2017-10-18T00:46:12.623Z,11.50
2017-10-18T00:48:40.235Z,11.50
2017-10-18T00:51:07.857Z,11.40
2017-10-18T00:53:35.712Z,11.40
2017-10-18T00:56:03.323Z,11.40
2017-10-18T00:58:30.910Z,11.40
2017-10-18T01:00:58.535Z,11.40
2017-10-18T01:03:26.146Z,11.40
2017-10-18T01:05:53.758Z,11.40
2017-10-18T01:08:21.366Z,11.40
2017-10-18T01:10:49.031Z,11.40
2017-10-18T01:13:16.639Z,11.40
2017-10-18T01:15:44.260Z,11.40
2017-10-18T01:18:11.836Z,11.40
2017-10-18T01:20:39.408Z,11.40
2017-10-18T01:23:07.787Z,11.40
2017-10-18T01:25:35.359Z,11.40
2017-10-18T01:28:03.054Z,11.40
2017-10-18T01:30:30.670Z,11.40
2017-10-18T01:32:58.244Z,11.30
2017-10-18T01:35:25.862Z,11.30
2017-10-18T01:37:53.478Z,11.30
2017-10-18T01:40:21.089Z,11.20
2017-10-18T01:42:48.663Z,11.10
2017-10-18T01:45:17.039Z,11.10
2017-10-18T01:47:45.414Z,11.10
2017-10-18T01:50:13.797Z,11.00
2017-10-18T01:52:42.179Z,11.00
2017-10-18T01:55:10.522Z,11.00
2017-10-18T01:57:38.090Z,11.00
2017-10-18T02:00:05.665Z,11.00
2017-10-18T02:02:33.280Z,11.00
2017-10-18T02:05:00.890Z,11.00
2017-10-18T02:07:28.500Z,11.00
2017-10-18T02:09:56.120Z,11.00
2017-10-18T02:12:23.754Z,10.90
2017-10-18T02:14:51.423Z,10.90
2017-10-18T02:17:19.033Z,10.90
2017-10-18T02:19:46.644Z,10.90
2017-10-18T02:22:14.262Z,10.90
2017-10-18T02:24:41.890Z,10.90
2017-10-18T02:27:10.229Z,10.90
2017-10-18T02:29:37.849Z,10.80
2017-10-18T02:32:05.422Z,10.80
2017-10-18T02:34:33.037Z,10.80
2017-10-18T02:37:00.647Z,10.70
2017-10-18T02:39:28.259Z,10.70
2017-10-18T02:41:55.842Z,10.70
2017-10-18T02:44:23.456Z,10.70
2017-10-18T02:46:51.066Z,10.80
2017-10-18T02:49:18.676Z,10.80
2017-10-18T02:51:46.291Z,10.80
2017-10-18T02:54:13.902Z,10.80
2017-10-18T02:56:41.481Z,10.80
2017-10-18T02:59:09.106Z,10.70
2017-10-18T03:01:36.715Z,10.70
2017-10-18T03:04:04.288Z,10.60
2017-10-18T03:06:32.630Z,10.50
2017-10-18T03:09:00.248Z,10.40
2017-10-18T03:11:27.828Z,10.40
2017-10-18T03:13:55.446Z,10.40
2017-10-18T03:16:23.058Z,10.40
2017-10-18T03:18:50.716Z,10.40
2017-10-18T03:21:18.333Z,10.40
2017-10-18T03:23:46.716Z,10.40
2017-10-18T03:26:15.061Z,10.40
2017-10-18T03:28:42.646Z,10.40
2017-10-18T03:31:10.232Z,10.50
2017-10-18T03:33:37.891Z,10.40
2017-10-18T03:36:05.514Z,10.40
2017-10-18T03:38:33.096Z,10.40
2017-10-18T03:41:00.704Z,10.40
2017-10-18T03:43:28.314Z,10.30
2017-10-18T03:45:55.930Z,10.20
2017-10-18T03:48:23.539Z,10.20
2017-10-18T03:50:51.158Z,10.20
2017-10-18T03:53:18.779Z,10.20
2017-10-18T03:55:46.392Z,10.20
2017-10-18T03:58:14.009Z,10.20
2017-10-18T04:00:41.636Z,10.20
2017-10-18T04:03:10.011Z,10.20
2017-10-18T04:05:38.391Z,10.20
2017-10-18T04:08:06.772Z,10.20
2017-10-18T04:10:35.110Z,10.20
2017-10-18T04:13:02.722Z,10.20
2017-10-18T04:15:30.298Z,10.20
2017-10-18T04:17:57.923Z,10.20
2017-10-18T04:20:25.496Z,10.20
2017-10-18T04:22:53.122Z,10.10
2017-10-18T04:25:20.779Z,10.10
2017-10-18T04:27:48.393Z,10.10
2017-10-18T04:30:16.014Z,10.10
2017-10-18T04:32:43.813Z,10.00
2017-10-18T04:35:12.198Z,10.00
2017-10-18T04:37:39.817Z,10.00
2017-10-18T04:40:07.438Z,10.10
2017-10-18T04:42:35.068Z,10.10
2017-10-18T04:45:02.698Z,10.10
2017-10-18T04:47:31.209Z,10.20
2017-10-18T04:49:58.822Z,10.20
2017-10-18T04:52:26.435Z,10.20
2017-10-18T04:54:54.095Z,10.20
2017-10-18T04:57:21.719Z,10.20
2017-10-18T04:59:49.335Z,10.20
2017-10-18T05:02:16.991Z,10.20
2017-10-18T05:04:45.378Z,10.20
2017-10-18T05:07:13.028Z,10.20
2017-10-18T05:09:40.651Z,10.30
2017-10-18T05:12:08.273Z,10.30
2017-10-18T05:14:35.904Z,10.40
2017-10-18T05:17:03.545Z,10.40
2017-10-18T05:19:31.185Z,10.40
2017-10-18T05:21:58.816Z,10.40
2017-10-18T05:24:26.428Z,10.40
2017-10-18T05:26:54.051Z,10.40
2017-10-18T05:29:21.673Z,10.40
2017-10-18T05:31:49.303Z,10.50
2017-10-18T05:34:16.918Z,10.60
2017-10-18T05:36:44.489Z,10.60
2017-10-18T05:39:12.026Z,10.70
2017-10-18T05:41:39.639Z,10.70
2017-10-18T05:44:07.261Z,10.70
2017-10-18T05:46:34.884Z,10.70
2017-10-18T05:49:02.499Z,10.60
2017-10-18T05:51:30.178Z,10.60
2017-10-18T05:53:57.753Z,10.70
2017-10-18T05:56:25.370Z,10.70
2017-10-18T05:58:52.990Z,10.70
2017-10-18T06:01:20.638Z,10.80
2017-10-18T06:03:48.260Z,10.90
2017-10-18T06:06:15.839Z,10.90
2017-10-18T06:08:43.419Z,10.90
2017-10-18T06:11:11.034Z,10.90
2017-10-18T06:13:38.646Z,10.90
2017-10-18T06:16:06.260Z,11.00
2017-10-18T06:18:33.883Z,11.00
2017-10-18T06:21:01.558Z,11.00
2017-10-18T06:23:29.183Z,11.10
2017-10-18T06:25:56.847Z,11.10
2017-10-18T06:28:24.545Z,11.20
2017-10-18T06:30:52.167Z,11.10
2017-10-18T06:33:19.778Z,11.20
2017-10-18T06:35:47.396Z,11.20
2017-10-18T06:38:14.976Z,11.20
2017-10-18T06:40:42.591Z,11.20
2017-10-18T06:43:10.411Z,11.30
2017-10-18T06:45:38.787Z,11.30
2017-10-18T06:48:07.173Z,11.40
2017-10-18T06:50:35.515Z,11.50
2017-10-18T06:53:03.089Z,11.50
2017-10-18T06:55:30.711Z,11.50
2017-10-18T06:57:58.330Z,11.60
2017-10-18T07:00:25.940Z,11.70
2017-10-18T07:02:53.514Z,11.80
2017-10-18T07:05:21.164Z,11.90
2017-10-18T07:07:48.810Z,11.90
2017-10-18T07:10:16.419Z,12.00
2017-10-18T07:12:44.048Z,12.20
2017-10-18T07:15:11.624Z,12.30
2017-10-18T07:17:39.195Z,12.40
2017-10-18T07:20:06.812Z,12.50
2017-10-18T07:22:34.468Z,12.60
2017-10-18T07:25:02.047Z,12.70
2017-10-18T07:27:29.654Z,12.80
2017-10-18T07:29:57.262Z,12.80
2017-10-18T07:32:24.845Z,13.00
2017-10-18T07:34:52.420Z,13.10
2017-10-18T07:37:20.038Z,13.20
2017-10-18T07:39:47.659Z,13.30
2017-10-18T07:42:15.232Z,13.40
2017-10-18T07:44:43.614Z,13.60
2017-10-18T07:47:11.994Z,13.70
2017-10-18T07:49:40.379Z,13.80
2017-10-18T07:52:08.719Z,13.90
2017-10-18T07:54:36.352Z,13.90
2017-10-18T07:57:03.985Z,14.00
2017-10-18T07:59:31.596Z,14.10
2017-10-18T08:01:59.207Z,14.20
2017-10-18T08:04:26.818Z,14.30
2017-10-18T08:06:54.463Z,14.40
2017-10-18T08:09:22.134Z,14.50
2017-10-18T08:11:49.746Z,14.60
2017-10-18T08:14:17.363Z,14.80
2017-10-18T08:16:44.985Z,14.90
2017-10-18T08:19:12.577Z,15.00
2017-10-18T08:21:40.208Z,15.10
2017-10-18T08:24:07.827Z,15.20
2017-10-18T08:26:35.459Z,15.30
2017-10-18T08:29:03.083Z,15.40
2017-10-18T08:31:30.704Z,15.50
2017-10-18T08:33:58.323Z,15.60
2017-10-18T08:36:25.946Z,15.70
2017-10-18T08:38:53.564Z,15.90
2017-10-18T08:41:21.216Z,15.90
2017-10-18T08:43:48.832Z,16.00
2017-10-18T08:46:17.174Z,16.10
2017-10-18T08:48:44.765Z,16.10
2017-10-18T08:51:12.383Z,16.10
2017-10-18T08:53:39.995Z,16.10
2017-10-18T08:56:07.620Z,16.10
2017-10-18T08:58:35.242Z,16.20
2017-10-18T09:01:02.854Z,16.20
2017-10-18T09:03:30.536Z,16.30
2017-10-18T09:05:58.938Z,16.50
2017-10-18T09:08:26.548Z,16.40
2017-10-18T09:10:54.163Z,16.50
2017-10-18T09:13:21.778Z,16.60
2017-10-18T09:15:49.399Z,16.70
2017-10-18T09:18:17.020Z,16.70
2017-10-18T09:20:44.634Z,16.80
2017-10-18T09:23:12.254Z,16.90
2017-10-18T09:25:39.829Z,16.90
2017-10-18T09:28:07.573Z,17.00
2017-10-18T09:30:35.951Z,17.10
2017-10-18T09:33:04.351Z,17.10
2017-10-18T09:35:31.970Z,17.20
2017-10-18T09:37:59.581Z,17.20
2017-10-18T09:40:27.155Z,17.30
2017-10-18T09:42:54.768Z,17.40
2017-10-18T09:45:23.155Z,17.50
2017-10-18T09:47:51.576Z,17.50
2017-10-18T09:50:19.182Z,17.50
2017-10-18T09:52:46.791Z,17.60
2017-10-18T09:55:14.368Z,17.60
2017-10-18T09:57:41.982Z,17.70
2017-10-18T10:00:10.327Z,17.70
2017-10-18T10:02:37.943Z,17.70
2017-10-18T10:05:05.557Z,17.80
2017-10-18T10:07:33.171Z,17.80
2017-10-18T10:10:00.792Z,17.90
2017-10-18T10:12:29.141Z,18.10
2017-10-18T10:14:56.754Z,18.10
2017-10-18T10:17:24.369Z,18.10
2017-10-18T10:19:52.005Z,18.20
2017-10-18T10:22:19.614Z,18.20
2017-10-18T10:24:47.992Z,18.30
2017-10-18T10:27:16.375Z,18.40
2017-10-18T10:29:44.714Z,18.50
2017-10-18T10:32:12.324Z,18.40
2017-10-18T10:34:39.910Z,18.60
2017-10-18T10:37:07.522Z,18.60
2017-10-18T10:39:35.142Z,18.60
2017-10-18T10:42:02.759Z,18.70
2017-10-18T10:44:30.378Z,18.70
2017-10-18T10:46:57.998Z,18.70
2017-10-18T10:49:25.696Z,18.80
2017-10-18T10:51:53.310Z,18.80
2017-10-18T10:54:20.882Z,18.90
2017-10-18T10:56:48.495Z,18.90
2017-10-18T10:59:16.111Z,19.00
2017-10-18T11:01:43.722Z,19.00
2017-10-18T11:04:11.387Z,19.10
2017-10-18T11:06:38.999Z,19.20
2017-10-18T11:09:06.826Z,19.20
2017-10-18T11:11:34.438Z,19.20
2017-10-18T11:14:02.050Z,19.20
2017-10-18T11:16:29.663Z,19.20
2017-10-18T11:18:57.270Z,19.20
2017-10-18T11:21:24.891Z,19.20
2017-10-18T11:23:52.473Z,19.30
2017-10-18T11:26:20.086Z,19.30
2017-10-18T11:28:47.716Z,19.40
2017-10-18T11:31:15.544Z,19.40
2017-10-18T11:33:43.156Z,19.50
2017-10-18T11:36:10.771Z,19.50
2017-10-18T11:38:38.406Z,19.50
2017-10-18T11:41:06.015Z,19.50
2017-10-18T11:43:33.585Z,19.60
2017-10-18T11:46:01.195Z,19.60
2017-10-18T11:48:28.809Z,19.70
2017-10-18T11:50:56.413Z,19.70
2017-10-18T11:53:23.979Z,19.70
2017-10-18T11:55:51.676Z,19.80
2017-10-18T11:58:19.282Z,19.80
2017-10-18T12:00:46.902Z,19.90
2017-10-18T12:03:14.515Z,20.00
2017-10-18T12:05:42.124Z,20.20
2017-10-18T12:08:09.746Z,20.40
2017-10-18T12:10:37.374Z,20.60
2017-10-18T12:13:05.709Z,20.50
2017-10-18T12:15:33.318Z,20.50
2017-10-18T12:18:00.929Z,20.50
2017-10-18T12:20:28.538Z,20.50
2017-10-18T12:22:56.152Z,20.40
2017-10-18T12:25:23.758Z,20.30
2017-10-18T12:27:51.553Z,20.00
2017-10-18T12:30:19.436Z,19.90
2017-10-18T12:32:47.042Z,19.90
2017-10-18T12:35:14.658Z,19.90
2017-10-18T12:37:42.271Z,19.80
2017-10-18T12:40:09.880Z,19.90
2017-10-18T12:42:37.498Z,19.80
2017-10-18T12:45:05.160Z,19.80
2017-10-18T12:47:32.771Z,19.70
2017-10-18T12:50:00.384Z,19.60
2017-10-18T12:52:28.006Z,19.60
2017-10-18T12:54:55.622Z,19.60
2017-10-18T12:57:23.228Z,19.50
2017-10-18T12:59:50.808Z,19.50
2017-10-18T13:02:18.414Z,19.40
2017-10-18T13:04:46.019Z,19.30
2017-10-18T13:07:13.627Z,19.30
2017-10-18T13:09:41.237Z,19.10
2017-10-18T13:12:08.850Z,19.10
2017-10-18T13:14:36.464Z,19.00
2017-10-18T13:17:04.076Z,18.90
2017-10-18T13:19:31.687Z,18.80
2017-10-18T13:21:59.294Z,18.60
2017-10-18T13:24:26.912Z,18.50
2017-10-18T13:26:54.529Z,18.30
2017-10-18T13:29:22.141Z,18.20
2017-10-18T13:31:49.783Z,18.10
2017-10-18T13:34:17.394Z,18.10
2017-10-18T13:36:45.002Z,18.10
2017-10-18T13:39:12.619Z,18.10
2017-10-18T13:41:40.231Z,18.00
2017-10-18T13:44:07.847Z,17.90
2017-10-18T13:46:35.419Z,17.90
2017-10-18T13:49:03.031Z,17.80
2017-10-18T13:51:30.643Z,17.70
2017-10-18T13:53:58.252Z,17.60
2017-10-18T13:56:25.859Z,17.50
2017-10-18T13:58:53.471Z,17.50
2017-10-18T14:01:21.142Z,17.40
2017-10-18T14:03:49.562Z,17.40
2017-10-18T14:06:17.175Z,17.40
2017-10-18T14:08:44.800Z,17.40
2017-10-18T14:11:12.426Z,17.30
2017-10-18T14:13:40.043Z,17.30
2017-10-18T14:16:07.654Z,17.30
2017-10-18T14:18:35.304Z,17.30
2017-10-18T14:21:02.951Z,17.30
2017-10-18T14:23:31.335Z,17.20
2017-10-18T14:25:59.715Z,17.20
2017-10-18T14:28:27.327Z,17.10
2017-10-18T14:30:54.945Z,17.20
2017-10-18T14:33:22.562Z,17.10
2017-10-18T14:35:50.176Z,17.10
2017-10-18T14:38:17.800Z,17.00
2017-10-18T14:40:45.411Z,17.00
2017-10-18T14:43:13.019Z,16.80
2017-10-18T14:45:40.630Z,16.80
2017-10-18T14:48:08.244Z,16.80
2017-10-18T14:50:35.861Z,16.80
2017-10-18T14:53:03.474Z,16.70
2017-10-18T14:55:31.089Z,16.70
2017-10-18T14:57:58.700Z,16.60
2017-10-18T15:00:26.315Z,16.60
2017-10-18T15:02:53.988Z,16.60
2017-10-18T15:05:21.599Z,16.50
2017-10-18T15:07:49.207Z,16.40
2017-10-18T15:10:16.818Z,16.40
2017-10-18T15:12:44.426Z,16.40
2017-10-18T15:15:12.041Z,16.30
2017-10-18T15:17:39.659Z,16.30
2017-10-18T15:20:07.278Z,16.20
2017-10-18T15:22:34.973Z,16.10
2017-10-18T15:25:02.582Z,16.00
2017-10-18T15:27:30.205Z,15.90
2017-10-18T15:29:57.827Z,15.90
2017-10-18T15:32:25.487Z,15.80
2017-10-18T15:34:53.098Z,15.70
2017-10-18T15:37:20.719Z,15.60
2017-10-18T15:39:48.340Z,15.40
2017-10-18T15:42:16.007Z,15.40
2017-10-18T15:44:43.627Z,15.30
2017-10-18T15:47:11.251Z,15.20
2017-10-18T15:49:38.874Z,15.20
2017-10-18T15:52:06.495Z,15.00
2017-10-18T15:54:34.154Z,14.90
2017-10-18T15:57:01.771Z,14.90
2017-10-18T15:59:29.387Z,14.70
2017-10-18T16:01:57.049Z,14.70
2017-10-18T16:04:24.671Z,14.70
2017-10-18T16:06:52.374Z,14.70
2017-10-18T16:09:19.982Z,14.70
2017-10-18T16:11:47.596Z,14.70
2017-10-18T16:14:15.210Z,14.60
2017-10-18T16:16:43.603Z,14.60
2017-10-18T16:19:12.001Z,14.50
2017-10-18T16:21:39.622Z,14.50
2017-10-18T16:24:07.290Z,14.50
2017-10-18T16:26:34.907Z,14.50
2017-10-18T16:29:02.523Z,14.40
2017-10-18T16:31:30.143Z,14.40
2017-10-18T16:33:57.768Z,14.40
2017-10-18T16:36:25.387Z,14.30
2017-10-18T16:38:52.999Z,14.30
2017-10-18T16:41:20.612Z,14.20
2017-10-18T16:43:48.204Z,14.10
2017-10-18T16:46:15.838Z,14.10
2017-10-18T16:48:44.235Z,13.90
2017-10-18T16:51:12.619Z,13.80
2017-10-18T16:53:40.359Z,13.90
2017-10-18T16:56:07.990Z,13.80
2017-10-18T16:58:35.612Z,13.80
2017-10-18T17:01:03.197Z,13.80
2017-10-18T17:03:30.823Z,13.70
2017-10-18T17:05:59.164Z,13.70
2017-10-18T17:08:26.783Z,13.60
2017-10-18T17:10:54.408Z,13.60
2017-10-18T17:13:22.796Z,13.50
2017-10-18T17:15:51.171Z,13.50
2017-10-18T17:18:19.548Z,13.40
2017-10-18T17:20:47.931Z,13.40
2017-10-18T17:23:16.277Z,13.30
2017-10-18T17:25:43.854Z,13.30
2017-10-18T17:28:11.473Z,13.30
2017-10-18T17:30:39.149Z,13.30
2017-10-18T17:33:06.768Z,13.30
2017-10-18T17:35:34.343Z,13.20
2017-10-18T17:38:01.964Z,13.10
2017-10-18T17:40:30.359Z,13.00
2017-10-18T17:42:58.827Z,13.00
2017-10-18T17:45:26.447Z,13.00
2017-10-18T17:47:54.062Z,13.00
2017-10-18T17:50:21.670Z,12.90
2017-10-18T17:52:49.287Z,12.90
2017-10-18T17:55:16.918Z,12.80
2017-10-18T17:57:44.538Z,12.80
2017-10-18T18:00:12.157Z,12.80
2017-10-18T18:02:40.547Z,12.80
2017-10-18T18:05:08.889Z,12.80
2017-10-18T18:07:36.515Z,12.80
2017-10-18T18:10:04.148Z,12.80
2017-10-18T18:12:32.544Z,12.80
2017-10-18T18:15:00.175Z,12.80
2017-10-18T18:17:27.846Z,12.80
2017-10-18T18:19:55.473Z,12.80
2017-10-18T18:22:23.095Z,12.80
2017-10-18T18:24:50.706Z,12.80
2017-10-18T18:27:18.326Z,12.90
2017-10-18T18:29:45.943Z,12.90
2017-10-18T18:32:13.605Z,12.90
2017-10-18T18:34:41.195Z,12.80
2017-10-18T18:37:08.990Z,12.80
2017-10-18T18:39:36.698Z,12.80
2017-10-18T18:42:05.099Z,12.80
2017-10-18T18:44:32.710Z,12.80
2017-10-18T18:47:00.333Z,12.80
2017-10-18T18:49:27.943Z,12.80
2017-10-18T18:51:55.560Z,12.80
2017-10-18T18:54:23.176Z,12.80
2017-10-18T18:56:50.794Z,12.70
2017-10-18T18:59:18.410Z,12.70
2017-10-18T19:01:46.023Z,12.70
2017-10-18T19:04:13.732Z,12.60
2017-10-18T19:06:42.166Z,12.60
2017-10-18T19:09:09.787Z,12.60
2017-10-18T19:11:37.398Z,12.60
2017-10-18T19:14:04.977Z,12.60
2017-10-18T19:16:32.603Z,12.60
2017-10-18T19:19:00.231Z,12.60
2017-10-18T19:21:27.847Z,12.60
2017-10-18T19:23:55.474Z,12.50
2017-10-18T19:26:23.085Z,12.50
2017-10-18T19:28:50.767Z,12.50
2017-10-18T19:31:19.111Z,12.40
2017-10-18T19:33:46.727Z,12.40
2017-10-18T19:36:14.359Z,12.40
2017-10-18T19:38:41.977Z,12.40
2017-10-18T19:41:09.595Z,12.40
2017-10-18T19:43:37.983Z,12.40
2017-10-18T19:46:05.640Z,12.40
2017-10-18T19:48:33.223Z,12.40
2017-10-18T19:51:00.849Z,12.40
2017-10-18T19:53:28.471Z,12.40
2017-10-18T19:55:56.099Z,12.40
2017-10-18T19:58:23.983Z,12.40
2017-10-18T20:00:51.614Z,12.30
2017-10-18T20:03:19.519Z,12.30
2017-10-18T20:05:47.139Z,12.30
2017-10-18T20:08:14.755Z,12.30
2017-10-18T20:10:42.375Z,12.30
2017-10-18T20:13:10.027Z,12.30
2017-10-18T20:15:37.643Z,12.30
2017-10-18T20:18:05.268Z,12.30
2017-10-18T20:20:32.855Z,12.20
2017-10-18T20:23:00.433Z,12.20
2017-10-18T20:25:28.048Z,12.20
2017-10-18T20:27:55.683Z,12.20
2017-10-18T20:30:23.296Z,12.10
2017-10-18T20:32:50.915Z,12.10
2017-10-18T20:35:18.491Z,12.20
2017-10-18T20:37:46.199Z,12.10
2017-10-18T20:40:13.840Z,12.10
2017-10-18T20:42:41.452Z,12.10
2017-10-18T20:45:09.034Z,12.00
2017-10-18T20:47:36.654Z,11.90
2017-10-18T20:50:04.262Z,11.90
2017-10-18T20:52:31.842Z,11.80
2017-10-18T20:54:59.451Z,11.80
2017-10-18T20:57:27.843Z,11.80
2017-10-18T20:59:56.193Z,11.80
2017-10-18T21:02:23.861Z,11.80
2017-10-18T21:04:51.487Z,11.80
2017-10-18T21:07:19.103Z,11.70
2017-10-18T21:09:46.730Z,11.70
2017-10-18T21:12:14.361Z,11.70
2017-10-18T21:14:41.981Z,11.70
2017-10-18T21:17:09.573Z,11.70
2017-10-18T21:19:37.188Z,11.60
2017-10-18T21:22:04.804Z,11.60
2017-10-18T21:24:32.423Z,11.50
2017-10-18T21:27:00.046Z,11.50
2017-10-18T21:29:27.663Z,11.50
2017-10-18T21:31:55.275Z,11.40
2017-10-18T21:34:23.074Z,11.40
2017-10-18T21:36:51.435Z,11.30
2017-10-18T21:39:19.121Z,11.30
2017-10-18T21:41:46.701Z,11.30
2017-10-18T21:44:14.367Z,11.30
2017-10-18T21:46:41.947Z,11.20
2017-10-18T21:49:09.568Z,11.20
2017-10-18T21:51:37.192Z,11.20
2017-10-18T21:54:04.770Z,11.10
2017-10-18T21:56:33.319Z,11.10
2017-10-18T21:59:00.938Z,11.10
2017-10-18T22:01:28.516Z,11.10
2017-10-18T22:03:56.097Z,11.10
2017-10-18T22:06:23.718Z,11.10
2017-10-18T22:08:52.120Z,11.10
2017-10-18T22:11:19.787Z,11.00
2017-10-18T22:13:47.368Z,11.00
2017-10-18T22:16:14.984Z,11.00
2017-10-18T22:18:42.617Z,11.00
2017-10-18T22:21:10.247Z,11.00
2017-10-18T22:23:37.838Z,10.90
2017-10-18T22:26:05.459Z,10.90
2017-10-18T22:28:33.284Z,10.80
2017-10-18T22:31:01.669Z,10.70
2017-10-18T22:33:30.053Z,10.70
2017-10-18T22:35:57.667Z,10.60
2017-10-18T22:38:42.905Z,10.60
2017-10-18T22:41:10.526Z,10.60
2017-10-18T22:43:38.148Z,10.50
2017-10-18T22:46:05.757Z,10.50
2017-10-18T22:48:34.142Z,10.40
2017-10-18T22:51:02.526Z,10.40
2017-10-18T22:53:30.910Z,10.40
2017-10-18T22:55:58.583Z,10.30
2017-10-18T22:58:26.202Z,10.30
2017-10-18T23:00:53.820Z,10.30
2017-10-18T23:03:21.434Z,10.20
2017-10-18T23:05:49.060Z,10.20
2017-10-18T23:08:16.678Z,10.20
2017-10-18T23:10:44.262Z,10.20
2017-10-18T23:13:11.881Z,10.20
2017-10-18T23:15:56.802Z,10.20
2017-10-18T23:18:24.435Z,10.20
2017-10-18T23:20:52.059Z,10.20
2017-10-18T23:23:19.676Z,10.20
2017-10-18T23:25:47.326Z,10.20
2017-10-18T23:28:14.935Z,10.10
2017-10-18T23:30:42.556Z,10.10
2017-10-18T23:33:10.183Z,10.10
2017-10-18T23:35:38.563Z,10.10
2017-10-18T23:38:06.911Z,10.10
2017-10-18T23:40:34.527Z,10.10
2017-10-18T23:43:02.139Z,10.10
2017-10-18T23:45:29.736Z,10.10
2017-10-18T23:47:57.353Z,10.10
2017-10-18T23:50:24.975Z,10.10
2017-10-18T23:52:54.555Z,10.20
2017-10-18T23:55:22.940Z,10.20
2017-10-18T23:57:50.558Z,10.10
